sensor_id;sensor_type;location;lat;lon;timestamp;pressure;altitude;pressure_sealevel;temperature;humidity
33161;BME280;19522;45.656;11.302;2023-07-02T00:01:47;97706.22;;;20.11;100.00
33161;BME280;19522;45.656;11.302;2023-07-02T00:04:15;97674.53;;;20.08;100.00
33161;BME280;19522;45.656;11.302;2023-07-02T00:06:47;97712.63;;;20.27;100.00
33161;BME280;19522;45.656;11.302;2023-07-02T00:09:16;97641.66;;;19.97;100.00
33161;BME280;19522;45.656;11.302;2023-07-02T00:11:43;97701.88;;;20.31;100.00
33161;BME280;19522;45.656;11.302;2023-07-02T00:14:09;97705.16;;;20.22;100.00
33161;BME280;19522;45.656;11.302;2023-07-02T00:16:39;97701.81;;;20.15;100.00
33161;BME280;19522;45.656;11.302;2023-07-02T00:19:05;97685.28;;;20.15;100.00
33161;BME280;19522;45.656;11.302;2023-07-02T00:21:31;97690.84;;;20.31;100.00
33161;BME280;19522;45.656;11.302;2023-07-02T00:23:59;97683.38;;;20.21;100.00
33161;BME280;19522;45.656;11.302;2023-07-02T00:26:25;97641.63;;;19.86;100.00
33161;BME280;19522;45.656;11.302;2023-07-02T00:28:52;97699.66;;;20.22;100.00
33161;BME280;19522;45.656;11.302;2023-07-02T00:31:18;97616.78;;;19.76;100.00
33161;BME280;19522;45.656;11.302;2023-07-02T00:33:44;97663.16;;;20.00;100.00
33161;BME280;19522;45.656;11.302;2023-07-02T00:36:10;97657.09;;;19.98;100.00
33161;BME280;19522;45.656;11.302;2023-07-02T00:38:40;97683.63;;;20.14;100.00
33161;BME280;19522;45.656;11.302;2023-07-02T00:41:06;97640.81;;;19.91;100.00
33161;BME280;19522;45.656;11.302;2023-07-02T00:43:31;97554.09;;;19.40;100.00
33161;BME280;19522;45.656;11.302;2023-07-02T00:45:57;97673.72;;;20.18;100.00
33161;BME280;19522;45.656;11.302;2023-07-02T00:48:23;97621.22;;;19.87;100.00
33161;BME280;19522;45.656;11.302;2023-07-02T00:50:48;97394.84;;;18.48;100.00
33161;BME280;19522;45.656;11.302;2023-07-02T00:53:14;97687.00;;;20.37;100.00
33161;BME280;19522;45.656;11.302;2023-07-02T00:55:39;97641.97;;;20.05;100.00
33161;BME280;19522;45.656;11.302;2023-07-02T00:58:07;97693.66;;;20.41;100.00
33161;BME280;19522;45.656;11.302;2023-07-02T01:00:33;97626.78;;;19.92;100.00
33161;BME280;19522;45.656;11.302;2023-07-02T01:03:02;97675.69;;;20.28;100.00
33161;BME280;19522;45.656;11.302;2023-07-02T01:05:33;97667.38;;;20.23;100.00
33161;BME280;19522;45.656;11.302;2023-07-02T01:08:02;97687.28;;;20.40;100.00
33161;BME280;19522;45.656;11.302;2023-07-02T01:10:28;97686.97;;;20.27;100.00
33161;BME280;19522;45.656;11.302;2023-07-02T01:13:06;97665.16;;;20.15;100.00
33161;BME280;19522;45.656;11.302;2023-07-02T01:15:32;97568.78;;;19.61;100.00
33161;BME280;19522;45.656;11.302;2023-07-02T01:17:58;97676.47;;;20.18;100.00
33161;BME280;19522;45.656;11.302;2023-07-02T01:20:24;97647.25;;;20.12;100.00
33161;BME280;19522;45.656;11.302;2023-07-02T01:22:50;97671.84;;;20.34;100.00
33161;BME280;19522;45.656;11.302;2023-07-02T01:25:18;97641.16;;;20.15;100.00
33161;BME280;19522;45.656;11.302;2023-07-02T01:27:44;97669.94;;;20.40;100.00
33161;BME280;19522;45.656;11.302;2023-07-02T01:30:10;97670.72;;;20.30;100.00
33161;BME280;19522;45.656;11.302;2023-07-02T01:32:36;97648.91;;;20.18;100.00
33161;BME280;19522;45.656;11.302;2023-07-02T01:35:04;97623.22;;;19.97;100.00
33161;BME280;19522;45.656;11.302;2023-07-02T01:37:30;97650.00;;;20.17;100.00
33161;BME280;19522;45.656;11.302;2023-07-02T01:40:02;97568.78;;;19.61;100.00
33161;BME280;19522;45.656;11.302;2023-07-02T01:42:31;97672.66;;;20.30;100.00
33161;BME280;19522;45.656;11.302;2023-07-02T01:44:57;97679.25;;;20.29;100.00
33161;BME280;19522;45.656;11.302;2023-07-02T01:47:22;97580.63;;;19.67;100.00
33161;BME280;19522;45.656;11.302;2023-07-02T01:49:48;97632.63;;;20.06;100.00
33161;BME280;19522;45.656;11.302;2023-07-02T01:52:13;97680.69;;;20.36;100.00
33161;BME280;19522;45.656;11.302;2023-07-02T01:54:38;97655.50;;;20.12;100.00
33161;BME280;19522;45.656;11.302;2023-07-02T01:57:04;97677.00;;;20.15;100.00
33161;BME280;19522;45.656;11.302;2023-07-02T01:59:30;97667.56;;;19.96;100.00
33161;BME280;19522;45.656;11.302;2023-07-02T02:01:55;97612.50;;;19.53;100.00
33161;BME280;19522;45.656;11.302;2023-07-02T02:04:21;97685.75;;;19.97;100.00
33161;BME280;19522;45.656;11.302;2023-07-02T02:06:46;97634.88;;;19.61;100.00
33161;BME280;19522;45.656;11.302;2023-07-02T02:09:11;97683.78;;;19.87;100.00
33161;BME280;19522;45.656;11.302;2023-07-02T02:11:39;97680.69;;;19.83;100.00
33161;BME280;19522;45.656;11.302;2023-07-02T02:14:05;97665.78;;;19.74;100.00
33161;BME280;19522;45.656;11.302;2023-07-02T02:16:30;97601.63;;;19.30;100.00
33161;BME280;19522;45.656;11.302;2023-07-02T02:18:56;97676.31;;;19.87;100.00
33161;BME280;19522;45.656;11.302;2023-07-02T02:21:22;97664.22;;;19.88;100.00
33161;BME280;19522;45.656;11.302;2023-07-02T02:23:50;97640.59;;;19.55;100.00
33161;BME280;19522;45.656;11.302;2023-07-02T02:26:15;97677.03;;;19.67;100.00
33161;BME280;19522;45.656;11.302;2023-07-02T02:28:42;97667.09;;;19.61;100.00
33161;BME280;19522;45.656;11.302;2023-07-02T02:31:07;97551.56;;;18.91;100.00
33161;BME280;19522;45.656;11.302;2023-07-02T02:33:33;97643.34;;;19.50;100.00
33161;BME280;19522;45.656;11.302;2023-07-02T02:36:00;97678.41;;;19.70;100.00
33161;BME280;19522;45.656;11.302;2023-07-02T02:38:26;97599.91;;;19.14;100.00
33161;BME280;19522;45.656;11.302;2023-07-02T02:40:51;97588.28;;;19.07;100.00
33161;BME280;19522;45.656;11.302;2023-07-02T02:43:17;97672.03;;;19.59;100.00
33161;BME280;19522;45.656;11.302;2023-07-02T02:45:42;97662.06;;;19.53;100.00
33161;BME280;19522;45.656;11.302;2023-07-02T02:48:08;97681.28;;;19.42;100.00
33161;BME280;19522;45.656;11.302;2023-07-02T02:50:34;97644.50;;;19.16;100.00
33161;BME280;19522;45.656;11.302;2023-07-02T02:52:59;97548.38;;;18.66;100.00
33161;BME280;19522;45.656;11.302;2023-07-02T02:55:24;97680.22;;;19.49;100.00
33161;BME280;19522;45.656;11.302;2023-07-02T02:57:50;97676.41;;;19.55;100.00
33161;BME280;19522;45.656;11.302;2023-07-02T03:00:15;97557.50;;;18.77;100.00
33161;BME280;19522;45.656;11.302;2023-07-02T03:02:42;97681.84;;;19.44;100.00
33161;BME280;19522;45.656;11.302;2023-07-02T03:05:08;97650.66;;;19.34;100.00
33161;BME280;19522;45.656;11.302;2023-07-02T03:07:33;97560.44;;;18.65;100.00
33161;BME280;19522;45.656;11.302;2023-07-02T03:09:59;97683.63;;;19.28;100.00
33161;BME280;19522;45.656;11.302;2023-07-02T03:12:27;97607.59;;;18.79;100.00
33161;BME280;19522;45.656;11.302;2023-07-02T03:14:53;97649.41;;;19.09;100.00
33161;BME280;19522;45.656;11.302;2023-07-02T03:17:20;97600.59;;;18.66;100.00
33161;BME280;19522;45.656;11.302;2023-07-02T03:19:46;97676.03;;;19.03;100.00
33161;BME280;19522;45.656;11.302;2023-07-02T03:22:12;97673.41;;;18.91;100.00
33161;BME280;19522;45.656;11.302;2023-07-02T03:24:37;97671.84;;;18.95;100.00
33161;BME280;19522;45.656;11.302;2023-07-02T03:27:03;97689.53;;;19.05;100.00
33161;BME280;19522;45.656;11.302;2023-07-02T03:29:28;97581.38;;;18.39;100.00
33161;BME280;19522;45.656;11.302;2023-07-02T03:31:54;97642.31;;;18.58;100.00
33161;BME280;19522;45.656;11.302;2023-07-02T03:34:19;97620.75;;;18.45;100.00
33161;BME280;19522;45.656;11.302;2023-07-02T03:36:45;97698.34;;;18.79;100.00
33161;BME280;19522;45.656;11.302;2023-07-02T03:39:11;97711.03;;;18.85;100.00
33161;BME280;19522;45.656;11.302;2023-07-02T03:41:36;97621.19;;;18.31;100.00
33161;BME280;19522;45.656;11.302;2023-07-02T03:44:01;97637.84;;;18.52;100.00
33161;BME280;19522;45.656;11.302;2023-07-02T03:46:30;97634.13;;;18.63;100.00
33161;BME280;19522;45.656;11.302;2023-07-02T03:48:56;97712.91;;;19.02;100.00
33161;BME280;19522;45.656;11.302;2023-07-02T03:51:22;97705.66;;;18.96;100.00
33161;BME280;19522;45.656;11.302;2023-07-02T03:53:47;97644.69;;;18.49;100.00
33161;BME280;19522;45.656;11.302;2023-07-02T03:56:13;97709.41;;;18.84;100.00
33161;BME280;19522;45.656;11.302;2023-07-02T03:58:40;97705.31;;;18.87;100.00
33161;BME280;19522;45.656;11.302;2023-07-02T04:01:05;97624.94;;;18.25;100.00
33161;BME280;19522;45.656;11.302;2023-07-02T04:03:30;97628.78;;;18.24;100.00
33161;BME280;19522;45.656;11.302;2023-07-02T04:05:56;97711.78;;;18.76;100.00
33161;BME280;19522;45.656;11.302;2023-07-02T04:08:21;97716.81;;;18.84;100.00
33161;BME280;19522;45.656;11.302;2023-07-02T04:10:47;97620.03;;;18.27;100.00
33161;BME280;19522;45.656;11.302;2023-07-02T04:13:13;97723.59;;;18.98;100.00
33161;BME280;19522;45.656;11.302;2023-07-02T04:15:38;97708.56;;;18.84;100.00
33161;BME280;19522;45.656;11.302;2023-07-02T04:18:03;97724.09;;;18.95;100.00
33161;BME280;19522;45.656;11.302;2023-07-02T04:20:29;97731.28;;;18.96;100.00
33161;BME280;19522;45.656;11.302;2023-07-02T04:22:55;97732.66;;;18.99;100.00
33161;BME280;19522;45.656;11.302;2023-07-02T04:25:20;97729.34;;;18.97;100.00
33161;BME280;19522;45.656;11.302;2023-07-02T04:27:46;97733.72;;;18.93;100.00
33161;BME280;19522;45.656;11.302;2023-07-02T04:30:11;97712.88;;;18.75;100.00
33161;BME280;19522;45.656;11.302;2023-07-02T04:32:37;97697.31;;;18.58;100.00
33161;BME280;19522;45.656;11.302;2023-07-02T04:35:07;97744.31;;;18.84;100.00
33161;BME280;19522;45.656;11.302;2023-07-02T04:37:33;97686.81;;;18.55;100.00
33161;BME280;19522;45.656;11.302;2023-07-02T04:39:58;97734.72;;;18.87;100.00
33161;BME280;19522;45.656;11.302;2023-07-02T04:42:25;97647.78;;;18.26;100.00
33161;BME280;19522;45.656;11.302;2023-07-02T04:44:55;97735.38;;;18.94;100.00
33161;BME280;19522;45.656;11.302;2023-07-02T04:47:20;97469.53;;;17.30;100.00
33161;BME280;19522;45.656;11.302;2023-07-02T04:49:46;97633.09;;;18.42;100.00
33161;BME280;19522;45.656;11.302;2023-07-02T04:52:11;97742.00;;;19.25;100.00
33161;BME280;19522;45.656;11.302;2023-07-02T04:54:37;97709.78;;;18.93;100.00
33161;BME280;19522;45.656;11.302;2023-07-02T04:57:02;97747.50;;;19.25;100.00
33161;BME280;19522;45.656;11.302;2023-07-02T04:59:31;97737.47;;;19.14;100.00
33161;BME280;19522;45.656;11.302;2023-07-02T05:01:56;97723.34;;;19.05;100.00
33161;BME280;19522;45.656;11.302;2023-07-02T05:04:22;97750.25;;;19.25;100.00
33161;BME280;19522;45.656;11.302;2023-07-02T05:06:47;97729.59;;;19.23;100.00
33161;BME280;19522;45.656;11.302;2023-07-02T05:09:12;97743.75;;;19.37;100.00
33161;BME280;19522;45.656;11.302;2023-07-02T05:11:38;97751.75;;;19.43;100.00
33161;BME280;19522;45.656;11.302;2023-07-02T05:14:06;97753.72;;;19.48;100.00
33161;BME280;19522;45.656;11.302;2023-07-02T05:16:32;97753.25;;;19.56;100.00
33161;BME280;19522;45.656;11.302;2023-07-02T05:18:57;97742.84;;;19.64;100.00
33161;BME280;19522;45.656;11.302;2023-07-02T05:21:23;97739.28;;;19.68;100.00
33161;BME280;19522;45.656;11.302;2023-07-02T05:23:48;97750.19;;;19.85;100.00
33161;BME280;19522;45.656;11.302;2023-07-02T05:26:14;97702.09;;;19.66;100.00
33161;BME280;19522;45.656;11.302;2023-07-02T05:28:39;97697.69;;;19.65;100.00
33161;BME280;19522;45.656;11.302;2023-07-02T05:31:05;97686.44;;;19.71;100.00
33161;BME280;19522;45.656;11.302;2023-07-02T05:33:30;97712.06;;;19.77;100.00
33161;BME280;19522;45.656;11.302;2023-07-02T05:35:57;97758.31;;;20.13;100.00
33161;BME280;19522;45.656;11.302;2023-07-02T05:38:22;97753.38;;;20.20;100.00
33161;BME280;19522;45.656;11.302;2023-07-02T05:40:49;97728.19;;;19.96;100.00
33161;BME280;19522;45.656;11.302;2023-07-02T05:43:14;97731.47;;;19.92;100.00
33161;BME280;19522;45.656;11.302;2023-07-02T05:45:40;97747.19;;;19.97;100.00
33161;BME280;19522;45.656;11.302;2023-07-02T05:48:05;97755.00;;;20.16;100.00
33161;BME280;19522;45.656;11.302;2023-07-02T05:50:31;97755.34;;;20.24;100.00
33161;BME280;19522;45.656;11.302;2023-07-02T05:52:56;97721.91;;;20.05;100.00
33161;BME280;19522;45.656;11.302;2023-07-02T05:55:24;97758.13;;;20.35;100.00
33161;BME280;19522;45.656;11.302;2023-07-02T05:57:50;97764.25;;;20.42;100.00
33161;BME280;19522;45.656;11.302;2023-07-02T06:00:16;97758.16;;;20.45;99.93
33161;BME280;19522;45.656;11.302;2023-07-02T06:02:41;97687.50;;;20.13;99.26
33161;BME280;19522;45.656;11.302;2023-07-02T06:05:07;97729.78;;;20.50;98.76
33161;BME280;19522;45.656;11.302;2023-07-02T06:07:32;97712.13;;;20.51;97.46
33161;BME280;19522;45.656;11.302;2023-07-02T06:10:01;97764.03;;;20.69;97.76
33161;BME280;19522;45.656;11.302;2023-07-02T06:12:26;97719.56;;;20.40;98.58
33161;BME280;19522;45.656;11.302;2023-07-02T06:14:52;97658.22;;;20.02;98.64
33161;BME280;19522;45.656;11.302;2023-07-02T06:17:17;97769.91;;;20.78;98.46
33161;BME280;19522;45.656;11.302;2023-07-02T06:19:44;97744.47;;;20.71;97.35
33161;BME280;19522;45.656;11.302;2023-07-02T06:22:09;97737.88;;;20.72;97.94
33161;BME280;19522;45.656;11.302;2023-07-02T06:24:53;97742.06;;;20.85;97.42
33161;BME280;19522;45.656;11.302;2023-07-02T06:27:22;97738.22;;;20.96;96.94
33161;BME280;19522;45.656;11.302;2023-07-02T06:29:47;97757.00;;;21.15;97.05
33161;BME280;19522;45.656;11.302;2023-07-02T06:32:13;97767.78;;;21.27;96.92
33161;BME280;19522;45.656;11.302;2023-07-02T06:34:39;97743.47;;;21.24;96.06
33161;BME280;19522;45.656;11.302;2023-07-02T06:37:04;97784.63;;;21.46;94.04
33161;BME280;19522;45.656;11.302;2023-07-02T06:39:36;97770.88;;;21.61;92.27
33161;BME280;19522;45.656;11.302;2023-07-02T06:42:01;97783.81;;;21.71;92.50
33161;BME280;19522;45.656;11.302;2023-07-02T06:44:27;97723.03;;;21.56;90.17
33161;BME280;19522;45.656;11.302;2023-07-02T06:46:52;97718.91;;;21.58;91.26
33161;BME280;19522;45.656;11.302;2023-07-02T06:49:18;97755.88;;;21.99;91.96
33161;BME280;19522;45.656;11.302;2023-07-02T06:51:43;97669.22;;;21.32;92.31
33161;BME280;19522;45.656;11.302;2023-07-02T06:54:11;97786.81;;;22.06;90.89
33161;BME280;19522;45.656;11.302;2023-07-02T06:56:38;97764.22;;;21.83;92.86
33161;BME280;19522;45.656;11.302;2023-07-02T06:59:06;97758.97;;;21.71;94.75
33161;BME280;19522;45.656;11.302;2023-07-02T07:01:31;97793.72;;;22.14;92.21
33161;BME280;19522;45.656;11.302;2023-07-02T07:03:57;97729.41;;;21.67;94.81
33161;BME280;19522;45.656;11.302;2023-07-02T07:06:22;97764.16;;;21.93;89.46
33161;BME280;19522;45.656;11.302;2023-07-02T07:08:48;97718.91;;;21.58;89.89
33161;BME280;19522;45.656;11.302;2023-07-02T07:11:13;97752.59;;;21.66;90.65
33161;BME280;19522;45.656;11.302;2023-07-02T07:13:38;97686.59;;;21.12;91.51
33161;BME280;19522;45.656;11.302;2023-07-02T07:16:04;97793.22;;;21.75;95.79
33161;BME280;19522;45.656;11.302;2023-07-02T07:18:29;97795.69;;;21.77;97.87
33161;BME280;19522;45.656;11.302;2023-07-02T07:20:55;97713.66;;;21.26;97.63
33161;BME280;19522;45.656;11.302;2023-07-02T07:23:21;97769.19;;;21.60;98.33
33161;BME280;19522;45.656;11.302;2023-07-02T07:25:46;97772.78;;;21.61;99.41
33161;BME280;19522;45.656;11.302;2023-07-02T07:28:12;97793.78;;;21.83;99.74
33161;BME280;19522;45.656;11.302;2023-07-02T07:30:41;97801.50;;;21.91;99.54
33161;BME280;19522;45.656;11.302;2023-07-02T07:33:07;97796.50;;;22.03;95.79
33161;BME280;19522;45.656;11.302;2023-07-02T07:35:32;97807.28;;;22.10;96.00
33161;BME280;19522;45.656;11.302;2023-07-02T07:37:58;97767.81;;;21.73;97.72
33161;BME280;19522;45.656;11.302;2023-07-02T07:40:23;97799.81;;;22.00;98.31
33161;BME280;19522;45.656;11.302;2023-07-02T07:42:48;97762.53;;;21.77;99.88
33161;BME280;19522;45.656;11.302;2023-07-02T07:45:14;97796.47;;;22.24;98.68
33161;BME280;19522;45.656;11.302;2023-07-02T07:47:39;97730.66;;;22.26;92.82
33161;BME280;19522;45.656;11.302;2023-07-02T07:50:06;97765.47;;;22.93;93.74
33161;BME280;19522;45.656;11.302;2023-07-02T07:52:37;97792.44;;;23.27;94.06
33161;BME280;19522;45.656;11.302;2023-07-02T07:55:02;97786.16;;;23.50;91.36
33161;BME280;19522;45.656;11.302;2023-07-02T07:57:28;97776.31;;;23.69;89.29
33161;BME280;19522;45.656;11.302;2023-07-02T07:59:53;97786.63;;;23.92;81.81
33161;BME280;19522;45.656;11.302;2023-07-02T08:02:21;97799.53;;;24.07;82.59
33161;BME280;19522;45.656;11.302;2023-07-02T08:04:48;97751.63;;;24.02;80.41
33161;BME280;19522;45.656;11.302;2023-07-02T08:07:14;97756.94;;;24.22;81.19
33161;BME280;19522;45.656;11.302;2023-07-02T08:09:39;97759.41;;;24.48;80.90
33161;BME280;19522;45.656;11.302;2023-07-02T08:12:08;97767.25;;;24.65;80.99
33161;BME280;19522;45.656;11.302;2023-07-02T08:14:34;97806.00;;;25.19;77.27
33161;BME280;19522;45.656;11.302;2023-07-02T08:17:00;97809.88;;;25.37;77.32
33161;BME280;19522;45.656;11.302;2023-07-02T08:19:25;97805.53;;;25.50;77.49
33161;BME280;19522;45.656;11.302;2023-07-02T08:21:51;97761.91;;;25.12;73.99
33161;BME280;19522;45.656;11.302;2023-07-02T08:24:17;97742.69;;;24.97;75.16
33161;BME280;19522;45.656;11.302;2023-07-02T08:26:42;97781.13;;;25.28;75.16
33161;BME280;19522;45.656;11.302;2023-07-02T08:29:10;97807.28;;;25.46;77.09
33161;BME280;19522;45.656;11.302;2023-07-02T08:31:35;97784.28;;;25.02;75.14
33161;BME280;19522;45.656;11.302;2023-07-02T08:34:00;97766.78;;;24.82;73.27
33161;BME280;19522;45.656;11.302;2023-07-02T08:36:26;97798.53;;;24.95;76.36
33161;BME280;19522;45.656;11.302;2023-07-02T08:38:51;97792.84;;;24.62;77.17
33161;BME280;19522;45.656;11.302;2023-07-02T08:41:16;97806.59;;;24.72;80.29
33161;BME280;19522;45.656;11.302;2023-07-02T08:43:43;97795.78;;;24.71;79.07
33161;BME280;19522;45.656;11.302;2023-07-02T08:46:09;97804.16;;;24.66;79.84
33161;BME280;19522;45.656;11.302;2023-07-02T08:48:35;97790.41;;;24.80;77.93
33161;BME280;19522;45.656;11.302;2023-07-02T08:51:02;97812.19;;;24.92;76.81
33161;BME280;19522;45.656;11.302;2023-07-02T08:53:28;97789.31;;;24.56;71.86
33161;BME280;19522;45.656;11.302;2023-07-02T08:56:00;97804.66;;;24.73;75.17
33161;BME280;19522;45.656;11.302;2023-07-02T08:58:25;97800.81;;;24.69;74.90
33161;BME280;19522;45.656;11.302;2023-07-02T09:01:10;97805.69;;;24.53;75.10
33161;BME280;19522;45.656;11.302;2023-07-02T09:03:37;97807.00;;;24.61;77.10
33161;BME280;19522;45.656;11.302;2023-07-02T09:06:04;97786.56;;;24.51;79.69
33161;BME280;19522;45.656;11.302;2023-07-02T09:08:33;97793.66;;;24.63;78.74
33161;BME280;19522;45.656;11.302;2023-07-02T09:11:21;97794.84;;;24.56;74.89
33161;BME280;19522;45.656;11.302;2023-07-02T09:13:51;97780.88;;;24.42;75.40
33161;BME280;19522;45.656;11.302;2023-07-02T09:16:30;97799.53;;;24.37;77.60
33161;BME280;19522;45.656;11.302;2023-07-02T09:19:04;97813.91;;;24.39;76.48
33161;BME280;19522;45.656;11.302;2023-07-02T09:21:46;97813.28;;;24.47;78.81
33161;BME280;19522;45.656;11.302;2023-07-02T09:24:31;97796.75;;;24.37;78.06
33161;BME280;19522;45.656;11.302;2023-07-02T09:27:01;97814.19;;;24.62;79.71
33161;BME280;19522;45.656;11.302;2023-07-02T09:29:31;97804.66;;;24.73;76.26
33161;BME280;19522;45.656;11.302;2023-07-02T09:31:58;97804.44;;;24.88;76.51
33161;BME280;19522;45.656;11.302;2023-07-02T09:34:29;97772.56;;;24.86;73.95
33161;BME280;19522;45.656;11.302;2023-07-02T09:36:55;97794.47;;;24.87;72.61
33161;BME280;19522;45.656;11.302;2023-07-02T09:39:26;97811.59;;;24.95;72.61
33161;BME280;19522;45.656;11.302;2023-07-02T09:41:51;97793.97;;;24.85;74.79
33161;BME280;19522;45.656;11.302;2023-07-02T09:44:18;97797.94;;;24.98;72.65
33161;BME280;19522;45.656;11.302;2023-07-02T09:46:51;97743.69;;;24.87;70.47
33161;BME280;19522;45.656;11.302;2023-07-02T09:49:20;97799.44;;;25.29;72.08
33161;BME280;19522;45.656;11.302;2023-07-02T09:51:46;97808.09;;;25.65;73.89
33161;BME280;19522;45.656;11.302;2023-07-02T09:54:11;97770.84;;;25.47;68.05
33161;BME280;19522;45.656;11.302;2023-07-02T09:56:37;97769.50;;;25.45;70.19
33161;BME280;19522;45.656;11.302;2023-07-02T09:59:03;97772.50;;;25.29;68.45
33161;BME280;19522;45.656;11.302;2023-07-02T10:01:28;97739.00;;;25.01;71.53
33161;BME280;19522;45.656;11.302;2023-07-02T10:03:54;97747.72;;;25.14;70.71
33161;BME280;19522;45.656;11.302;2023-07-02T10:06:19;97808.69;;;25.62;70.49
33161;BME280;19522;45.656;11.302;2023-07-02T10:08:55;97809.63;;;25.72;69.91
33161;BME280;19522;45.656;11.302;2023-07-02T10:11:21;97803.75;;;25.73;69.07
33161;BME280;19522;45.656;11.302;2023-07-02T10:13:58;97807.50;;;26.16;72.74
33161;BME280;19522;45.656;11.302;2023-07-02T10:16:24;97804.47;;;26.45;70.92
33161;BME280;19522;45.656;11.302;2023-07-02T10:18:53;97770.06;;;26.08;66.14
33161;BME280;19522;45.656;11.302;2023-07-02T10:21:18;97751.34;;;26.27;72.91
33161;BME280;19522;45.656;11.302;2023-07-02T10:23:44;97792.19;;;26.88;68.49
33161;BME280;19522;45.656;11.302;2023-07-02T10:26:19;97735.31;;;26.24;69.18
33161;BME280;19522;45.656;11.302;2023-07-02T10:28:58;97807.13;;;26.64;67.57
33161;BME280;19522;45.656;11.302;2023-07-02T10:31:23;97749.84;;;25.88;67.90
33161;BME280;19522;45.656;11.302;2023-07-02T10:33:49;97695.22;;;25.50;69.49
33161;BME280;19522;45.656;11.302;2023-07-02T10:36:21;97738.38;;;25.62;71.91
33161;BME280;19522;45.656;11.302;2023-07-02T10:38:48;97787.22;;;26.15;72.44
33161;BME280;19522;45.656;11.302;2023-07-02T10:41:26;97760.28;;;25.96;71.63
33161;BME280;19522;45.656;11.302;2023-07-02T10:43:52;97699.16;;;25.77;69.94
33161;BME280;19522;45.656;11.302;2023-07-02T10:46:23;97775.91;;;26.25;70.72
33161;BME280;19522;45.656;11.302;2023-07-02T10:48:56;97796.91;;;26.18;69.75
33161;BME280;19522;45.656;11.302;2023-07-02T10:51:22;97784.06;;;26.03;69.54
33161;BME280;19522;45.656;11.302;2023-07-02T10:54:03;97782.19;;;25.84;70.39
33161;BME280;19522;45.656;11.302;2023-07-02T10:56:31;97794.28;;;25.74;71.74
33161;BME280;19522;45.656;11.302;2023-07-02T10:58:57;97806.25;;;25.75;72.05
33161;BME280;19522;45.656;11.302;2023-07-02T11:01:32;97752.88;;;25.59;72.14
33161;BME280;19522;45.656;11.302;2023-07-02T11:04:02;97777.97;;;25.54;72.74
33161;BME280;19522;45.656;11.302;2023-07-02T11:06:31;97796.56;;;25.72;74.09
33161;BME280;19522;45.656;11.302;2023-07-02T11:09:00;97792.34;;;25.75;72.49
33161;BME280;19522;45.656;11.302;2023-07-02T11:11:25;97741.63;;;25.31;73.63
33161;BME280;19522;45.656;11.302;2023-07-02T11:13:52;97769.53;;;25.59;71.68
33161;BME280;19522;45.656;11.302;2023-07-02T11:16:28;97739.50;;;25.61;71.12
33161;BME280;19522;45.656;11.302;2023-07-02T11:19:06;97768.31;;;25.65;71.90
33161;BME280;19522;45.656;11.302;2023-07-02T11:21:33;97733.44;;;25.40;71.58
33161;BME280;19522;45.656;11.302;2023-07-02T11:24:03;97798.66;;;25.80;72.05
33161;BME280;19522;45.656;11.302;2023-07-02T11:26:41;97786.13;;;25.64;74.75
33161;BME280;19522;45.656;11.302;2023-07-02T11:29:17;97779.59;;;25.55;73.10
33161;BME280;19522;45.656;11.302;2023-07-02T11:31:43;97776.53;;;25.56;72.01
33161;BME280;19522;45.656;11.302;2023-07-02T11:34:16;97784.72;;;25.47;72.88
33161;BME280;19522;45.656;11.302;2023-07-02T11:36:42;97793.81;;;25.53;71.76
33161;BME280;19522;45.656;11.302;2023-07-02T11:39:07;97685.00;;;24.74;74.26
33161;BME280;19522;45.656;11.302;2023-07-02T11:41:44;97759.06;;;25.17;73.35
33161;BME280;19522;45.656;11.302;2023-07-02T11:44:09;97678.84;;;24.78;73.40
33161;BME280;19522;45.656;11.302;2023-07-02T11:46:38;97706.69;;;24.92;72.44
33161;BME280;19522;45.656;11.302;2023-07-02T11:49:04;97792.75;;;25.30;73.61
33161;BME280;19522;45.656;11.302;2023-07-02T11:51:30;97783.09;;;25.27;73.35
33161;BME280;19522;45.656;11.302;2023-07-02T11:53:57;97791.09;;;25.29;73.73
33161;BME280;19522;45.656;11.302;2023-07-02T11:56:22;97741.44;;;24.89;74.64
33161;BME280;19522;45.656;11.302;2023-07-02T11:58:47;97739.19;;;24.91;75.48
33161;BME280;19522;45.656;11.302;2023-07-02T12:01:13;97780.09;;;25.24;76.20
33161;BME280;19522;45.656;11.302;2023-07-02T12:03:38;97679.81;;;24.68;73.96
33161;BME280;19522;45.656;11.302;2023-07-02T12:06:04;97772.81;;;25.47;72.83
33161;BME280;19522;45.656;11.302;2023-07-02T12:08:30;97767.03;;;25.43;71.08
33161;BME280;19522;45.656;11.302;2023-07-02T12:10:55;97777.31;;;25.43;73.56
33161;BME280;19522;45.656;11.302;2023-07-02T12:13:21;97768.66;;;25.44;73.53
33161;BME280;19522;45.656;11.302;2023-07-02T12:15:47;97782.72;;;25.34;74.28
33161;BME280;19522;45.656;11.302;2023-07-02T12:18:12;97770.22;;;25.31;74.19
33161;BME280;19522;45.656;11.302;2023-07-02T12:20:40;97790.13;;;25.58;72.60
33161;BME280;19522;45.656;11.302;2023-07-02T12:23:05;97769.25;;;25.22;76.79
33161;BME280;19522;45.656;11.302;2023-07-02T12:25:31;97771.75;;;25.24;75.86
33161;BME280;19522;45.656;11.302;2023-07-02T12:27:59;97779.56;;;25.41;75.63
33161;BME280;19522;45.656;11.302;2023-07-02T12:30:24;97766.56;;;24.98;77.84
33161;BME280;19522;45.656;11.302;2023-07-02T12:32:50;97800.19;;;25.15;81.54
33161;BME280;19522;45.656;11.302;2023-07-02T12:35:15;97771.06;;;25.13;82.25
33161;BME280;19522;45.656;11.302;2023-07-02T12:37:49;97798.84;;;25.32;82.96
33161;BME280;19522;45.656;11.302;2023-07-02T12:40:15;97796.34;;;25.30;82.79
33161;BME280;19522;45.656;11.302;2023-07-02T12:42:41;97801.34;;;25.14;81.88
33161;BME280;19522;45.656;11.302;2023-07-02T12:45:08;97781.63;;;25.11;82.64